Time;durP1;ratioP1;P1;durP2;ratioP2;P2;SDS_P1;SDS_P2;PMS_P1;PMS_P2;Temp;Humidity;BMP_temperature;BMP_pressure;BME280_temperature;BME280_humidity;BME280_pressure;Samples;Min_cycle;Max_cycle;Signal;HPM_P1;HPM_P2
2022/06/12 00:01:03;;;;;;;;;;;14.90;99.90;;;;;;5114114;28;19985;-79
2022/06/12 00:03:32;;;;;;;;;;;14.90;99.90;;;;;;5114148;28;20343;-78
2022/06/12 00:05:58;;;;;;;;;;;14.80;99.90;;;;;;5113920;28;20363;-78
2022/06/12 00:08:24;;;;;;;;;;;14.90;99.90;;;;;;5095947;28;19915;-78
2022/06/12 00:10:51;;;;;;;;;;;14.90;99.90;;;;;;5113860;28;19914;-79
2022/06/12 00:13:19;;;;;;;;;;;14.90;99.90;;;;;;5114027;28;20088;-79
2022/06/12 00:15:45;;;;;;;;;;;14.90;99.90;;;;;;5113753;28;19908;-79
2022/06/12 00:18:10;;;;;;;;;;;14.80;99.90;;;;;;5113418;28;19908;-79
2022/06/12 00:20:37;;;;;;;;;;;14.80;99.90;;;;;;5095530;28;19926;-78
2022/06/12 00:23:06;;;;;;;;;;;14.70;99.90;;;;;;5095280;28;19911;-79
2022/06/12 00:25:31;;;;;;;;;;;14.60;99.90;;;;;;5113772;28;20328;-78
2022/06/12 00:27:57;;;;;;;;;;;14.50;99.90;;;;;;5113500;28;19908;-78
2022/06/12 00:30:25;;;;;;;;;;;14.50;99.90;;;;;;5113686;28;20306;-78
2022/06/12 00:32:52;;;;;;;;;;;14.50;99.90;;;;;;5095227;28;19903;-78
2022/06/12 00:35:29;;;;;;;;;;;14.50;99.90;;;;;;5113616;28;19908;-78
2022/06/12 00:37:55;;;;;;;;;;;14.50;99.90;;;;;;5094833;28;19904;-79
2022/06/12 00:40:21;;;;;;;;;;;14.50;99.90;;;;;;5113382;28;19969;-78
2022/06/12 00:42:49;;;;;;;;;;;14.50;99.90;;;;;;5113508;28;19995;-78
2022/06/12 00:45:30;;;;;;;;;;;14.50;99.90;;;;;;5113495;28;19940;-78
2022/06/12 00:47:57;;;;;;;;;;;14.40;99.90;;;;;;5113157;28;20382;-78
2022/06/12 00:50:22;;;;;;;;;;;14.40;99.90;;;;;;5113277;28;20371;-78
2022/06/12 00:52:50;;;;;;;;;;;14.40;99.90;;;;;;5113192;28;20402;-79
2022/06/12 00:55:31;;;;;;;;;;;14.40;99.90;;;;;;5094908;28;19907;-79
2022/06/12 00:58:01;;;;;;;;;;;14.40;99.90;;;;;;5113139;28;19915;-79
2022/06/12 01:00:26;;;;;;;;;;;14.30;99.90;;;;;;5094781;28;19912;-79
2022/06/12 01:02:53;;;;;;;;;;;14.30;99.90;;;;;;5113235;28;19915;-78
2022/06/12 01:08:05;;;;;;;;;;;14.30;99.90;;;;;;5113292;28;19954;-78
2022/06/12 01:10:32;;;;;;;;;;;14.30;99.90;;;;;;5112955;28;19911;-78
2022/06/12 01:12:59;;;;;;;;;;;14.20;99.90;;;;;;5113043;28;19950;-79
2022/06/12 01:15:27;;;;;;;;;;;14.20;99.90;;;;;;5112946;28;19904;-78
2022/06/12 01:17:53;;;;;;;;;;;14.20;99.90;;;;;;5094432;28;20247;-79
2022/06/12 01:20:24;;;;;;;;;;;14.10;99.90;;;;;;5112700;28;19968;-78
2022/06/12 01:22:55;;;;;;;;;;;14.10;99.90;;;;;;5094534;28;20554;-78
2022/06/12 01:25:33;;;;;;;;;;;14.10;99.90;;;;;;5112721;28;20335;-79
2022/06/12 01:28:02;;;;;;;;;;;14.10;99.90;;;;;;5112713;28;19915;-79
2022/06/12 01:30:47;;;;;;;;;;;14.10;99.90;;;;;;5096547;28;19908;-78
2022/06/12 01:33:21;;;;;;;;;;;14.10;99.90;;;;;;5116911;28;19908;-79
2022/06/12 01:35:50;;;;;;;;;;;14.00;99.90;;;;;;5116976;28;19907;-79
2022/06/12 01:38:18;;;;;;;;;;;14.00;99.90;;;;;;5116896;28;19912;-79
2022/06/12 01:41:13;;;;;;;;;;;14.00;99.90;;;;;;5098407;28;20278;-78
2022/06/12 01:43:59;;;;;;;;;;;13.90;99.90;;;;;;5103221;28;19908;-78
2022/06/12 01:46:29;;;;;;;;;;;13.90;99.90;;;;;;5098859;28;20304;-79
2022/06/12 01:49:02;;;;;;;;;;;13.90;99.90;;;;;;5116613;28;19962;-79
2022/06/12 01:51:31;;;;;;;;;;;13.90;99.90;;;;;;5116570;28;19908;-78
2022/06/12 01:53:59;;;;;;;;;;;13.90;99.90;;;;;;5098445;28;19924;-79
2022/06/12 01:56:28;;;;;;;;;;;13.80;99.90;;;;;;5116684;28;19908;-79
2022/06/12 01:59:03;;;;;;;;;;;13.80;99.90;;;;;;5116425;28;19907;-79
2022/06/12 02:01:35;;;;;;;;;;;13.70;99.90;;;;;;5116314;28;20454;-78
2022/06/12 02:04:01;;;;;;;;;;;13.70;99.90;;;;;;5098483;28;20266;-79
2022/06/12 02:06:38;;;;;;;;;;;13.70;99.90;;;;;;5116634;28;19911;-79
2022/06/12 02:09:15;;;;;;;;;;;13.70;99.90;;;;;;5098173;28;20011;-79
2022/06/12 02:14:36;;;;;;;;;;;13.70;99.90;;;;;;5116460;28;20266;-79
2022/06/12 02:17:03;;;;;;;;;;;13.70;99.90;;;;;;5097605;28;19946;-79
2022/06/12 02:19:34;;;;;;;;;;;13.70;99.90;;;;;;5097816;28;20374;-78
2022/06/12 02:22:07;;;;;;;;;;;13.70;99.90;;;;;;5116241;28;20011;-78
2022/06/12 02:24:39;;;;;;;;;;;13.70;99.90;;;;;;5116107;28;20383;-79
2022/06/12 02:27:34;;;;;;;;;;;13.60;99.90;;;;;;5115807;28;19960;-79
2022/06/12 02:30:01;;;;;;;;;;;13.60;99.90;;;;;;5102207;28;19903;-78
2022/06/12 02:32:31;;;;;;;;;;;13.60;99.90;;;;;;5115882;28;19908;-78
2022/06/12 02:34:59;;;;;;;;;;;13.60;99.90;;;;;;5115690;28;19904;-78
2022/06/12 02:37:27;;;;;;;;;;;13.50;99.90;;;;;;5097249;28;19908;-78
2022/06/12 02:39:58;;;;;;;;;;;13.50;99.90;;;;;;5115901;28;19965;-78
2022/06/12 02:42:26;;;;;;;;;;;13.50;99.90;;;;;;5114386;28;19915;-78
2022/06/12 02:44:55;;;;;;;;;;;13.50;99.90;;;;;;5115699;28;19907;-78
2022/06/12 02:47:22;;;;;;;;;;;13.30;99.90;;;;;;5097116;28;19930;-78
2022/06/12 02:49:50;;;;;;;;;;;13.40;99.90;;;;;;5115511;28;20345;-78
2022/06/12 02:52:21;;;;;;;;;;;13.30;99.90;;;;;;5096947;28;19964;-78
2022/06/12 02:54:47;;;;;;;;;;;13.30;99.90;;;;;;5115413;28;19976;-78
2022/06/12 02:57:27;;;;;;;;;;;13.30;99.90;;;;;;5115395;28;20323;-78
2022/06/12 02:59:58;;;;;;;;;;;13.30;99.90;;;;;;5115383;28;20014;-78
2022/06/12 03:02:27;;;;;;;;;;;13.20;99.90;;;;;;5115303;28;20416;-79
2022/06/12 03:05:01;;;;;;;;;;;13.20;99.90;;;;;;5115315;28;20266;-78
2022/06/12 03:07:28;;;;;;;;;;;13.30;99.90;;;;;;5114968;28;19960;-78
2022/06/12 03:09:54;;;;;;;;;;;13.20;99.90;;;;;;5115348;28;20255;-78
2022/06/12 03:12:19;;;;;;;;;;;13.30;99.90;;;;;;5115217;28;19911;-79
2022/06/12 03:14:45;;;;;;;;;;;13.30;99.90;;;;;;5096898;28;19916;-79
2022/06/12 03:17:10;;;;;;;;;;;13.30;99.90;;;;;;5114772;28;19912;-79
2022/06/12 03:19:46;;;;;;;;;;;13.30;99.90;;;;;;5115067;28;19912;-78
2022/06/12 03:22:21;;;;;;;;;;;13.30;99.90;;;;;;5096436;28;20247;-78
2022/06/12 03:24:49;;;;;;;;;;;13.30;99.90;;;;;;5114878;28;19915;-78
2022/06/12 03:27:18;;;;;;;;;;;13.30;99.90;;;;;;5096463;28;20004;-78
2022/06/12 03:30:07;;;;;;;;;;;13.30;99.90;;;;;;5114650;28;19908;-79
2022/06/12 03:32:51;;;;;;;;;;;13.30;99.90;;;;;;5106212;28;19933;-78
2022/06/12 03:35:17;;;;;;;;;;;13.40;99.90;;;;;;5096191;28;19950;-78
2022/06/12 03:37:51;;;;;;;;;;;13.40;99.90;;;;;;5114608;28;19965;-78
2022/06/12 03:40:17;;;;;;;;;;;13.40;99.90;;;;;;5114351;28;20026;-78
2022/06/12 03:42:42;;;;;;;;;;;13.40;99.90;;;;;;5114061;28;19999;-78
2022/06/12 03:45:08;;;;;;;;;;;13.40;99.90;;;;;;5114607;28;19908;-78
2022/06/12 03:47:43;;;;;;;;;;;13.40;99.90;;;;;;5114305;28;19919;-78
2022/06/12 03:50:29;;;;;;;;;;;13.40;99.90;;;;;;5095773;28;19908;-79
2022/06/12 03:53:06;;;;;;;;;;;13.50;99.90;;;;;;5113600;28;20284;-79
2022/06/12 03:58:40;;;;;;;;;;;13.50;99.90;;;;;;5114143;28;19914;-79
2022/06/12 04:01:06;;;;;;;;;;;13.60;99.90;;;;;;5114018;28;20018;-79
2022/06/12 04:03:37;;;;;;;;;;;13.60;99.90;;;;;;5114433;28;19908;-78
2022/06/12 04:06:05;;;;;;;;;;;13.60;99.90;;;;;;5096013;28;20461;-79
2022/06/12 04:08:39;;;;;;;;;;;13.70;99.90;;;;;;5114009;28;19930;-79
2022/06/12 04:11:06;;;;;;;;;;;13.70;99.90;;;;;;5114143;28;19947;-79
2022/06/12 04:13:34;;;;;;;;;;;13.80;99.90;;;;;;5113928;28;19968;-78
2022/06/12 04:16:03;;;;;;;;;;;13.80;99.90;;;;;;5113632;28;19915;-79
2022/06/12 04:18:29;;;;;;;;;;;13.90;99.90;;;;;;5113362;28;20333;-78
2022/06/12 04:20:55;;;;;;;;;;;13.90;99.90;;;;;;5095324;28;19926;-79
2022/06/12 04:23:33;;;;;;;;;;;13.90;99.90;;;;;;5095325;28;19908;-79
2022/06/12 04:26:18;;;;;;;;;;;14.10;99.90;;;;;;5113536;28;19908;-78
2022/06/12 04:28:44;;;;;;;;;;;14.10;99.90;;;;;;5094881;28;19931;-78
2022/06/12 04:31:18;;;;;;;;;;;14.30;99.90;;;;;;5113576;28;19930;-79
2022/06/12 04:33:46;;;;;;;;;;;14.30;99.90;;;;;;5095242;28;20263;-79
2022/06/12 04:36:12;;;;;;;;;;;14.30;99.90;;;;;;5095336;28;19912;-78
2022/06/12 04:38:38;;;;;;;;;;;14.40;99.90;;;;;;5113275;28;20354;-79
2022/06/12 04:41:04;;;;;;;;;;;14.50;99.90;;;;;;5113248;28;19919;-78
2022/06/12 04:43:30;;;;;;;;;;;14.60;99.90;;;;;;5113304;28;20270;-78
2022/06/12 04:45:56;;;;;;;;;;;14.80;99.90;;;;;;5095006;28;19999;-78
2022/06/12 04:48:26;;;;;;;;;;;15.20;99.90;;;;;;5113193;28;20426;-78
2022/06/12 04:50:52;;;;;;;;;;;15.00;99.90;;;;;;5113184;28;19904;-78
2022/06/12 04:53:18;;;;;;;;;;;15.30;99.90;;;;;;5115806;28;20273;-79
2022/06/12 04:55:46;;;;;;;;;;;15.50;99.90;;;;;;5113146;28;19912;-79
2022/06/12 04:58:11;;;;;;;;;;;15.50;99.90;;;;;;5116506;28;19915;-78
2022/06/12 05:00:38;;;;;;;;;;;15.70;99.90;;;;;;5113057;28;20270;-79
2022/06/12 05:03:03;;;;;;;;;;;15.90;99.90;;;;;;5094579;28;19919;-83
2022/06/12 05:05:29;;;;;;;;;;;16.10;99.90;;;;;;5094418;28;19912;-83
2022/06/12 05:07:55;;;;;;;;;;;16.30;99.90;;;;;;5117028;28;19908;-79
2022/06/12 05:10:20;;;;;;;;;;;16.40;99.90;;;;;;5113193;28;19908;-78
2022/06/12 05:12:46;;;;;;;;;;;16.60;99.90;;;;;;5094742;28;20002;-79
2022/06/12 05:15:12;;;;;;;;;;;16.80;99.90;;;;;;5113063;28;19919;-78
2022/06/12 05:17:42;;;;;;;;;;;17.00;99.90;;;;;;5112794;28;20370;-79
2022/06/12 05:20:12;;;;;;;;;;;17.10;99.90;;;;;;5113013;28;20025;-79
2022/06/12 05:22:38;;;;;;;;;;;17.40;99.90;;;;;;5112951;28;20351;-78
2022/06/12 05:25:04;;;;;;;;;;;17.40;99.90;;;;;;5112703;28;19915;-78
2022/06/12 05:27:32;;;;;;;;;;;17.50;99.90;;;;;;5112730;28;19914;-78
2022/06/12 05:29:57;;;;;;;;;;;17.60;99.90;;;;;;5112755;28;20282;-79
2022/06/12 05:32:23;;;;;;;;;;;17.80;99.90;;;;;;5112545;28;19918;-78
2022/06/12 05:34:49;;;;;;;;;;;18.00;99.90;;;;;;5112796;28;19951;-78
2022/06/12 05:37:14;;;;;;;;;;;18.10;99.90;;;;;;5094563;28;19959;-79
2022/06/12 05:39:40;;;;;;;;;;;18.20;99.90;;;;;;5112614;28;19946;-78
2022/06/12 05:42:07;;;;;;;;;;;18.20;99.90;;;;;;5112548;28;20378;-79
2022/06/12 05:44:33;;;;;;;;;;;18.30;99.90;;;;;;5094389;28;19914;-79
2022/06/12 05:46:59;;;;;;;;;;;18.50;99.90;;;;;;5094400;28;19911;-78
2022/06/12 05:49:26;;;;;;;;;;;18.50;99.90;;;;;;5112618;28;19912;-78
2022/06/12 05:51:51;;;;;;;;;;;18.70;99.90;;;;;;5094479;28;19908;-78
2022/06/12 05:54:17;;;;;;;;;;;18.80;99.90;;;;;;5094083;28;19920;-79
2022/06/12 05:56:42;;;;;;;;;;;18.90;99.90;;;;;;5112452;28;19941;-79
2022/06/12 05:59:08;;;;;;;;;;;19.00;99.90;;;;;;5112546;28;19904;-79
2022/06/12 06:01:33;;;;;;;;;;;19.10;99.90;;;;;;5093927;28;19924;-78
2022/06/12 06:03:59;;;;;;;;;;;19.20;99.90;;;;;;5112739;28;19912;-79
2022/06/12 06:06:30;;;;;;;;;;;19.30;99.90;;;;;;5094403;28;19990;-79
2022/06/12 06:08:56;;;;;;;;;;;19.50;99.90;;;;;;5112695;28;20263;-79
2022/06/12 06:11:22;;;;;;;;;;;19.60;99.90;;;;;;5112805;28;20308;-79
2022/06/12 06:13:48;;;;;;;;;;;19.80;99.90;;;;;;5112445;28;19916;-78
2022/06/12 06:16:13;;;;;;;;;;;20.00;99.90;;;;;;5113594;28;19911;-79
2022/06/12 06:18:40;;;;;;;;;;;20.20;99.90;;;;;;5116112;28;19915;-79
2022/06/12 06:21:08;;;;;;;;;;;20.40;99.90;;;;;;5116152;28;20014;-79
2022/06/12 06:23:35;;;;;;;;;;;20.50;99.90;;;;;;5116091;28;19912;-79
2022/06/12 06:26:01;;;;;;;;;;;20.80;99.90;;;;;;5115971;28;19919;-77
2022/06/12 06:28:27;;;;;;;;;;;21.00;98.60;;;;;;5115791;28;20328;-77
2022/06/12 06:30:52;;;;;;;;;;;21.40;98.10;;;;;;5116065;28;19908;-78
2022/06/12 06:33:18;;;;;;;;;;;21.30;95.70;;;;;;5115995;28;19956;-77
2022/06/12 06:35:43;;;;;;;;;;;21.20;94.10;;;;;;5115807;28;19935;-77
2022/06/12 06:38:09;;;;;;;;;;;21.40;93.60;;;;;;5115962;28;19912;-77
2022/06/12 06:40:35;;;;;;;;;;;21.60;93.30;;;;;;5115901;28;20347;-77
2022/06/12 06:43:01;;;;;;;;;;;21.70;93.20;;;;;;5115806;28;19962;-78
2022/06/12 06:48:11;;;;;;;;;;;21.90;92.30;;;;;;5115655;28;19915;-78
2022/06/12 06:50:37;;;;;;;;;;;22.20;91.90;;;;;;5097278;28;20247;-78
2022/06/12 06:53:03;;;;;;;;;;;22.40;91.00;;;;;;5115188;28;20038;-78
2022/06/12 06:55:29;;;;;;;;;;;22.50;90.10;;;;;;5115570;28;20358;-77
2022/06/12 06:57:57;;;;;;;;;;;22.70;89.20;;;;;;5115349;28;19990;-77
2022/06/12 07:00:25;;;;;;;;;;;23.00;90.10;;;;;;5114951;28;19923;-78
2022/06/12 07:02:50;;;;;;;;;;;23.20;86.10;;;;;;5115422;28;19907;-79
2022/06/12 07:05:17;;;;;;;;;;;23.30;84.70;;;;;;5115546;28;19911;-77
2022/06/12 07:07:43;;;;;;;;;;;;;;;;;;5115354;28;19912;-77
2022/06/12 07:10:11;;;;;;;;;;;23.60;83.10;;;;;;5113425;28;19911;-75
2022/06/12 07:12:37;;;;;;;;;;;23.70;81.20;;;;;;5096929;28;19912;-76
2022/06/12 07:15:03;;;;;;;;;;;23.90;79.10;;;;;;5097313;28;19911;-77
2022/06/12 07:17:29;;;;;;;;;;;24.00;75.40;;;;;;5115240;28;20351;-76
2022/06/12 07:19:54;;;;;;;;;;;24.10;78.50;;;;;;5115224;28;19912;-75
2022/06/12 07:22:21;;;;;;;;;;;24.20;77.30;;;;;;5115493;28;19962;-77
2022/06/12 07:24:46;;;;;;;;;;;24.40;75.50;;;;;;5096910;28;19908;-79
2022/06/12 07:27:12;;;;;;;;;;;24.40;74.00;;;;;;5096028;28;19908;-78
2022/06/12 07:29:37;;;;;;;;;;;24.50;74.40;;;;;;5114873;28;19943;-79
2022/06/12 07:32:03;;;;;;;;;;;24.60;72.30;;;;;;5115321;28;20398;-78
2022/06/12 07:34:29;;;;;;;;;;;24.70;72.80;;;;;;5096671;28;20280;-77
2022/06/12 07:36:55;;;;;;;;;;;24.80;72.60;;;;;;5114946;28;19995;-77
2022/06/12 07:39:23;;;;;;;;;;;24.80;71.50;;;;;;5114904;28;19908;-75
2022/06/12 07:41:49;;;;;;;;;;;24.90;71.40;;;;;;5114916;28;19927;-75
2022/06/12 07:44:17;;;;;;;;;;;24.90;73.50;;;;;;5114705;28;19998;-76
2022/06/12 07:46:43;;;;;;;;;;;25.00;73.70;;;;;;5114950;28;19908;-75
2022/06/12 07:49:08;;;;;;;;;;;25.00;69.90;;;;;;5114495;28;19976;-74
2022/06/12 07:51:34;;;;;;;;;;;25.00;71.00;;;;;;5114538;28;19918;-76
2022/06/12 07:53:59;;;;;;;;;;;24.80;70.30;;;;;;5114509;28;19924;-75
2022/06/12 07:56:25;;;;;;;;;;;24.80;69.40;;;;;;5114405;28;20002;-75
2022/06/12 07:58:51;;;;;;;;;;;24.80;69.20;;;;;;5114232;28;19911;-75
2022/06/12 08:01:17;;;;;;;;;;;24.90;70.80;;;;;;5114286;28;19967;-75
2022/06/12 08:03:43;;;;;;;;;;;25.10;70.80;;;;;;5114203;28;20418;-75
2022/06/12 08:06:09;;;;;;;;;;;25.20;70.90;;;;;;5114106;28;19947;-74
2022/06/12 08:08:34;;;;;;;;;;;25.30;69.60;;;;;;5113189;28;19954;-74
2022/06/12 08:11:01;;;;;;;;;;;25.40;70.60;;;;;;5113896;28;19919;-74
2022/06/12 08:13:27;;;;;;;;;;;25.60;70.30;;;;;;5113722;28;19947;-74
2022/06/12 08:15:53;;;;;;;;;;;25.70;68.10;;;;;;5113862;28;19907;-76
2022/06/12 08:18:19;;;;;;;;;;;25.70;68.80;;;;;;5113880;28;19908;-76
2022/06/12 08:20:46;;;;;;;;;;;25.80;69.80;;;;;;5113696;28;19923;-74
2022/06/12 08:23:26;;;;;;;;;;;25.70;69.00;;;;;;5113634;28;19911;-74
2022/06/12 08:26:12;;;;;;;;;;;25.70;68.70;;;;;;5113619;28;19908;-75
2022/06/12 08:28:40;;;;;;;;;;;25.60;68.60;;;;;;5112883;28;20313;-76
2022/06/12 08:31:06;;;;;;;;;;;25.60;68.70;;;;;;5113390;28;19912;-74
2022/06/12 08:33:33;;;;;;;;;;;25.70;68.90;;;;;;5113385;28;20427;-75
2022/06/12 08:35:59;;;;;;;;;;;25.90;68.70;;;;;;5113364;28;19908;-75
2022/06/12 08:38:24;;;;;;;;;;;26.00;65.50;;;;;;5113246;28;19931;-74
2022/06/12 08:40:57;;;;;;;;;;;26.20;66.20;;;;;;5113207;28;19923;-74
2022/06/12 08:43:53;;;;;;;;;;;26.20;64.40;;;;;;5113424;28;19999;-75
2022/06/12 08:46:32;;;;;;;;;;;26.20;65.50;;;;;;5058475;28;20269;-74
2022/06/12 08:49:01;;;;;;;;;;;26.10;65.60;;;;;;5113189;28;19912;-75
2022/06/12 08:51:31;;;;;;;;;;;26.10;64.40;;;;;;5113226;28;20416;-75
2022/06/12 08:53:56;;;;;;;;;;;26.10;65.20;;;;;;5112974;28;19920;-74
2022/06/12 08:56:29;;;;;;;;;;;26.40;67.60;;;;;;5113148;28;19971;-74
2022/06/12 08:59:14;;;;;;;;;;;26.60;65.60;;;;;;5113109;28;19907;-74
2022/06/12 09:01:42;;;;;;;;;;;26.90;62.50;;;;;;5112878;28;20358;-73
2022/06/12 09:04:09;;;;;;;;;;;27.10;64.00;;;;;;5113176;28;19908;-74
2022/06/12 09:06:48;;;;;;;;;;;27.20;64.40;;;;;;5113055;28;19908;-74
2022/06/12 09:09:14;;;;;;;;;;;27.20;63.60;;;;;;5112800;28;19912;-74
2022/06/12 09:11:39;;;;;;;;;;;27.20;61.60;;;;;;5112953;28;19930;-75
2022/06/12 09:14:13;;;;;;;;;;;27.20;60.30;;;;;;5094567;28;20049;-75
2022/06/12 09:16:57;;;;;;;;;;;27.20;61.30;;;;;;5113056;28;19949;-75
2022/06/12 09:19:34;;;;;;;;;;;27.40;61.60;;;;;;5113122;28;20274;-75
2022/06/12 09:22:12;;;;;;;;;;;27.50;60.60;;;;;;5112773;28;20006;-75
2022/06/12 09:24:38;;;;;;;;;;;27.60;58.00;;;;;;5112802;28;19908;-75
2022/06/12 09:27:11;;;;;;;;;;;27.60;59.40;;;;;;5112856;28;19914;-76
2022/06/12 09:29:37;;;;;;;;;;;27.50;57.40;;;;;;5112488;28;19994;-76
2022/06/12 09:32:02;;;;;;;;;;;27.30;57.40;;;;;;5111740;28;20002;-75
2022/06/12 09:34:30;;;;;;;;;;;27.20;57.50;;;;;;5112702;28;20317;-75
2022/06/12 09:36:59;;;;;;;;;;;27.40;58.80;;;;;;5112244;28;19908;-74
2022/06/12 09:39:27;;;;;;;;;;;27.40;59.80;;;;;;5094162;28;20274;-75
2022/06/12 09:42:02;;;;;;;;;;;27.50;58.80;;;;;;5112330;28;19919;-75
2022/06/12 09:44:34;;;;;;;;;;;27.50;58.60;;;;;;5112530;28;19957;-75
2022/06/12 09:47:02;;;;;;;;;;;27.50;58.30;;;;;;5112490;28;20316;-75
2022/06/12 09:49:43;;;;;;;;;;;27.40;58.20;;;;;;5112639;28;19977;-74
2022/06/12 09:52:08;;;;;;;;;;;27.30;60.00;;;;;;5115666;28;19908;-75
2022/06/12 09:54:41;;;;;;;;;;;26.90;58.30;;;;;;5116622;28;19975;-76
2022/06/12 09:57:14;;;;;;;;;;;26.80;59.10;;;;;;5116527;28;19924;-75
2022/06/12 09:59:44;;;;;;;;;;;26.90;60.80;;;;;;5116190;28;19908;-75
2022/06/12 10:02:30;;;;;;;;;;;27.00;59.40;;;;;;5116049;28;19912;-75
2022/06/12 10:05:00;;;;;;;;;;;27.10;60.10;;;;;;5064831;28;19919;-75
2022/06/12 10:07:30;;;;;;;;;;;27.20;60.50;;;;;;5116288;28;19912;-75
2022/06/12 10:10:09;;;;;;;;;;;27.30;60.00;;;;;;5116261;28;19907;-75
2022/06/12 10:12:37;;;;;;;;;;;27.60;59.90;;;;;;5115987;28;19915;-76
2022/06/12 10:15:23;;;;;;;;;;;27.80;59.80;;;;;;5115981;28;20048;-75
2022/06/12 10:17:59;;;;;;;;;;;28.00;60.00;;;;;;5114972;28;19931;-75
2022/06/12 10:20:29;;;;;;;;;;;27.90;58.90;;;;;;5116118;28;19912;-76
2022/06/12 10:22:55;;;;;;;;;;;27.80;59.70;;;;;;5115933;28;19915;-76
2022/06/12 10:25:24;;;;;;;;;;;27.70;60.50;;;;;;5116018;28;19904;-75
2022/06/12 10:27:54;;;;;;;;;;;27.80;61.80;;;;;;5115525;28;19915;-75
2022/06/12 10:30:26;;;;;;;;;;;27.80;60.00;;;;;;5115688;28;19908;-76
2022/06/12 10:32:54;;;;;;;;;;;27.60;58.80;;;;;;5115410;28;19952;-76
2022/06/12 10:35:21;;;;;;;;;;;27.50;59.10;;;;;;5115564;28;20347;-76
2022/06/12 10:37:47;;;;;;;;;;;27.30;59.40;;;;;;5080410;28;20320;-75
2022/06/12 10:40:16;;;;;;;;;;;27.20;59.80;;;;;;5115551;28;19926;-74
2022/06/12 10:42:50;;;;;;;;;;;27.00;60.70;;;;;;5097972;28;20244;-75
2022/06/12 10:45:24;;;;;;;;;;;27.10;60.30;;;;;;5115944;28;19908;-75
2022/06/12 10:47:50;;;;;;;;;;;27.00;61.50;;;;;;5115077;28;19907;-78
2022/06/12 10:50:19;;;;;;;;;;;27.10;61.50;;;;;;5115731;28;20329;-79
2022/06/12 10:52:51;;;;;;;;;;;27.20;61.70;;;;;;5096920;28;20311;-79
2022/06/12 10:55:18;;;;;;;;;;;27.20;61.00;;;;;;5097103;28;19959;-79
2022/06/12 10:57:51;;;;;;;;;;;27.10;59.80;;;;;;5115486;28;20390;-80
2022/06/12 11:00:16;;;;;;;;;;;27.30;59.80;;;;;;5096968;28;19964;-82
2022/06/12 11:02:45;;;;;;;;;;;27.60;60.00;;;;;;5095987;28;19912;-80
2022/06/12 11:05:21;;;;;;;;;;;27.70;59.70;;;;;;5096609;28;19904;-79
2022/06/12 11:07:53;;;;;;;;;;;27.80;60.30;;;;;;5115139;28;19907;-79
2022/06/12 11:10:34;;;;;;;;;;;27.70;61.00;;;;;;5114892;28;19908;-79
2022/06/12 11:13:26;;;;;;;;;;;27.50;59.70;;;;;;5096524;28;19943;-80
2022/06/12 11:15:54;;;;;;;;;;;27.20;59.80;;;;;;5096385;28;19908;-80
2022/06/12 11:18:35;;;;;;;;;;;27.00;66.60;;;;;;5096005;28;19944;-81
2022/06/12 11:21:07;;;;;;;;;;;27.20;61.50;;;;;;5114863;28;20262;-80
2022/06/12 11:23:35;;;;;;;;;;;27.40;58.90;;;;;;5114854;28;19914;-81
2022/06/12 11:26:03;;;;;;;;;;;27.40;58.30;;;;;;5096500;28;19912;-80
2022/06/12 11:28:29;;;;;;;;;;;27.40;60.00;;;;;;5114724;28;19915;-81
2022/06/12 11:30:57;;;;;;;;;;;27.40;61.00;;;;;;5096365;28;19912;-81
2022/06/12 11:33:33;;;;;;;;;;;27.40;59.30;;;;;;5114781;28;19951;-80
2022/06/12 11:36:16;;;;;;;;;;;27.60;61.00;;;;;;5096303;28;19954;-81
2022/06/12 11:38:54;;;;;;;;;;;27.70;60.30;;;;;;5114423;28;19999;-80
2022/06/12 11:41:38;;;;;;;;;;;27.60;58.30;;;;;;5096283;28;19916;-81
2022/06/12 11:44:13;;;;;;;;;;;27.50;58.90;;;;;;5114554;28;19931;-81
2022/06/12 11:46:50;;;;;;;;;;;27.50;58.80;;;;;;5114552;28;19908;-81
2022/06/12 11:49:34;;;;;;;;;;;27.60;60.00;;;;;;5114222;28;20422;-81
2022/06/12 11:52:00;;;;;;;;;;;27.70;61.10;;;;;;5096033;28;19914;-81
2022/06/12 11:54:26;;;;;;;;;;;27.50;60.80;;;;;;5114418;28;19920;-81
2022/06/12 11:56:58;;;;;;;;;;;27.50;59.90;;;;;;5096200;28;19912;-81
2022/06/12 11:59:45;;;;;;;;;;;27.50;59.90;;;;;;5114364;28;19939;-81
2022/06/12 12:02:10;;;;;;;;;;;27.40;59.70;;;;;;5114184;28;19985;-82
2022/06/12 12:04:55;;;;;;;;;;;27.40;58.90;;;;;;5114188;28;19908;-82
2022/06/12 12:07:21;;;;;;;;;;;27.50;59.30;;;;;;5113899;28;19961;-81
2022/06/12 12:09:48;;;;;;;;;;;27.60;57.90;;;;;;5114081;28;19907;-82
2022/06/12 12:12:23;;;;;;;;;;;27.70;58.40;;;;;;5095663;28;19908;-81
2022/06/12 12:14:50;;;;;;;;;;;27.90;57.70;;;;;;5095318;28;19908;-81
2022/06/12 12:17:18;;;;;;;;;;;28.20;57.90;;;;;;5095355;28;20351;-83
2022/06/12 12:19:46;;;;;;;;;;;28.40;55.70;;;;;;5095492;28;20288;-81
2022/06/12 12:22:26;;;;;;;;;;;28.60;56.60;;;;;;5095492;28;19912;-82
2022/06/12 12:24:55;;;;;;;;;;;28.70;55.90;;;;;;5113741;28;20354;-81
2022/06/12 12:27:32;;;;;;;;;;;28.80;54.80;;;;;;5095100;28;19908;-82
2022/06/12 12:29:58;;;;;;;;;;;28.80;54.40;;;;;;5095364;28;19907;-82
2022/06/12 12:32:24;;;;;;;;;;;28.60;55.20;;;;;;5095339;28;20068;-83
2022/06/12 12:34:52;;;;;;;;;;;28.50;54.60;;;;;;5095023;28;19916;-81
2022/06/12 12:42:46;;;;;;;;;;;27.80;56.80;;;;;;5113662;28;20007;-82
2022/06/12 12:45:14;;;;;;;;;;;27.60;58.30;;;;;;5095069;28;19991;-81
2022/06/12 12:47:40;;;;;;;;;;;27.50;57.00;;;;;;5095096;28;19964;-81
2022/06/12 12:50:10;;;;;;;;;;;27.70;58.80;;;;;;5113256;28;20010;-81
2022/06/12 12:52:44;;;;;;;;;;;28.00;57.30;;;;;;5094708;28;19915;-81
2022/06/12 12:55:19;;;;;;;;;;;28.30;57.50;;;;;;5094955;28;19916;-81
2022/06/12 12:57:45;;;;;;;;;;;28.50;57.70;;;;;;5094874;28;19911;-81
2022/06/12 13:00:17;;;;;;;;;;;28.80;55.20;;;;;;5094683;28;19919;-81
2022/06/12 13:02:48;;;;;;;;;;;28.90;54.20;;;;;;5094669;28;19915;-82
2022/06/12 13:05:15;;;;;;;;;;;29.10;55.30;;;;;;5094735;28;19963;-82
2022/06/12 13:08:02;;;;;;;;;;;29.20;54.00;;;;;;5094814;28;19924;-81
2022/06/12 13:10:43;;;;;;;;;;;29.20;54.50;;;;;;5113039;28;19904;-81
2022/06/12 13:13:21;;;;;;;;;;;29.40;54.50;;;;;;5112964;28;20244;-81
2022/06/12 13:16:05;;;;;;;;;;;29.40;53.30;;;;;;5094578;28;19935;-81
2022/06/12 13:18:38;;;;;;;;;;;29.60;55.30;;;;;;5094526;28;20347;-81
2022/06/12 13:21:17;;;;;;;;;;;29.70;55.60;;;;;;5112758;28;19931;-81
2022/06/12 13:23:42;;;;;;;;;;;29.80;54.10;;;;;;5094368;28;20342;-81
2022/06/12 13:26:10;;;;;;;;;;;29.90;53.90;;;;;;5093839;28;20006;-82
2022/06/12 13:28:37;;;;;;;;;;;29.90;54.30;;;;;;5094233;28;19908;-81
2022/06/12 13:31:04;;;;;;;;;;;29.80;52.30;;;;;;5094505;28;20433;-82
2022/06/12 13:33:36;;;;;;;;;;;29.60;54.20;;;;;;5094552;28;19908;-82
2022/06/12 13:36:13;;;;;;;;;;;29.60;53.20;;;;;;5094466;28;19912;-81
2022/06/12 13:38:57;;;;;;;;;;;29.60;52.90;;;;;;5094453;28;19912;-82
2022/06/12 13:41:23;;;;;;;;;;;29.40;53.20;;;;;;5112684;28;19968;-82
2022/06/12 13:43:48;;;;;;;;;;;29.40;52.90;;;;;;5094413;28;20309;-81
2022/06/12 13:46:25;;;;;;;;;;;29.40;53.30;;;;;;5112744;28;19907;-82
2022/06/12 13:48:51;;;;;;;;;;;29.50;54.10;;;;;;5112562;28;19912;-82
2022/06/12 13:51:21;;;;;;;;;;;29.50;53.60;;;;;;5094316;28;19960;-82
2022/06/12 13:53:47;;;;;;;;;;;29.50;52.70;;;;;;5094084;28;20347;-82
2022/06/12 13:56:15;;;;;;;;;;;29.40;53.00;;;;;;5112489;28;19935;-82
2022/06/12 13:58:47;;;;;;;;;;;29.30;54.60;;;;;;5112533;28;19915;-81
2022/06/12 14:01:20;;;;;;;;;;;29.30;52.70;;;;;;5112380;28;19922;-79
2022/06/12 14:03:51;;;;;;;;;;;29.20;53.70;;;;;;5111957;28;20408;-79
2022/06/12 14:06:19;;;;;;;;;;;29.20;54.10;;;;;;5111934;28;20375;-80
2022/06/12 14:08:45;;;;;;;;;;;29.30;53.00;;;;;;5093257;28;19915;-79
2022/06/12 14:11:22;;;;;;;;;;;29.30;52.60;;;;;;5093992;28;19904;-80
2022/06/12 14:13:48;;;;;;;;;;;29.50;52.40;;;;;;5112304;28;19912;-80
2022/06/12 14:16:18;;;;;;;;;;;29.50;51.50;;;;;;5112277;28;19907;-79
2022/06/12 14:18:55;;;;;;;;;;;29.50;51.60;;;;;;5093949;28;19912;-79
2022/06/12 14:21:34;;;;;;;;;;;29.60;52.40;;;;;;5093944;28;19916;-81
2022/06/12 14:24:00;;;;;;;;;;;29.70;53.30;;;;;;5111931;28;19919;-78
2022/06/12 14:26:26;;;;;;;;;;;29.90;53.30;;;;;;5093578;28;20350;-79
2022/06/12 14:28:52;;;;;;;;;;;29.80;52.80;;;;;;5093579;28;19908;-79
2022/06/12 14:31:17;;;;;;;;;;;29.60;52.60;;;;;;5093824;28;19908;-79
2022/06/12 14:33:43;;;;;;;;;;;29.60;54.50;;;;;;5111965;28;19908;-78
2022/06/12 14:36:24;;;;;;;;;;;29.60;54.10;;;;;;5093675;28;19915;-78
2022/06/12 14:38:49;;;;;;;;;;;29.70;53.10;;;;;;5115416;28;19904;-79
2022/06/12 14:41:16;;;;;;;;;;;29.70;52.80;;;;;;5116287;28;19926;-80
2022/06/12 14:43:42;;;;;;;;;;;29.70;53.00;;;;;;5102412;28;19908;-77
2022/06/12 14:46:12;;;;;;;;;;;29.60;53.50;;;;;;5117541;28;20014;-79
2022/06/12 14:48:38;;;;;;;;;;;29.40;54.00;;;;;;5115634;28;19915;-78
2022/06/12 14:51:04;;;;;;;;;;;29.20;55.00;;;;;;5115261;28;19908;-78